sensor_id;sensor_type;location;lat;lon;timestamp;P1;P2;P0
34240;PMS7003;20503;50.200;19.508;2023-08-24T00:02:03;3;2;2
34240;PMS7003;20503;50.200;19.508;2023-08-24T00:07:12;3;2;2
34240;PMS7003;20503;50.200;19.508;2023-08-24T00:12:21;3;3;3
34240;PMS7003;20503;50.200;19.508;2023-08-24T00:17:29;4;3;3
34240;PMS7003;20503;50.200;19.508;2023-08-24T00:22:39;4;4;3
34240;PMS7003;20503;50.200;19.508;2023-08-24T00:27:46;5;5;4
34240;PMS7003;20503;50.200;19.508;2023-08-24T00:32:54;5;3;3
34240;PMS7003;20503;50.200;19.508;2023-08-24T00:38:03;7;5;4
34240;PMS7003;20503;50.200;19.508;2023-08-24T00:43:12;4;4;4
34240;PMS7003;20503;50.200;19.508;2023-08-24T00:48:21;4;4;3
34240;PMS7003;20503;50.200;19.508;2023-08-24T00:53:30;5;3;3
34240;PMS7003;20503;50.200;19.508;2023-08-24T00:58:38;5;5;4
34240;PMS7003;20503;50.200;19.508;2023-08-24T01:03:47;4;3;2
34240;PMS7003;20503;50.200;19.508;2023-08-24T01:08:57;4;3;3
34240;PMS7003;20503;50.200;19.508;2023-08-24T01:14:09;4;4;3
34240;PMS7003;20503;50.200;19.508;2023-08-24T01:19:22;5;5;4
34240;PMS7003;20503;50.200;19.508;2023-08-24T01:29:29;4;4;3
34240;PMS7003;20503;50.200;19.508;2023-08-24T01:34:36;4;4;4
34240;PMS7003;20503;50.200;19.508;2023-08-24T01:44:54;5;5;4
34240;PMS7003;20503;50.200;19.508;2023-08-24T01:50:00;5;4;4
34240;PMS7003;20503;50.200;19.508;2023-08-24T01:55:08;6;5;3
34240;PMS7003;20503;50.200;19.508;2023-08-24T02:00:16;5;4;4
34240;PMS7003;20503;50.200;19.508;2023-08-24T02:05:24;5;5;4
34240;PMS7003;20503;50.200;19.508;2023-08-24T02:10:32;7;4;3
34240;PMS7003;20503;50.200;19.508;2023-08-24T02:15:40;4;3;3
34240;PMS7003;20503;50.200;19.508;2023-08-24T02:20:48;7;4;4
34240;PMS7003;20503;50.200;19.508;2023-08-24T02:25:56;4;4;3
34240;PMS7003;20503;50.200;19.508;2023-08-24T02:31:04;4;4;3
34240;PMS7003;20503;50.200;19.508;2023-08-24T02:36:12;5;5;4
34240;PMS7003;20503;50.200;19.508;2023-08-24T02:41:20;4;4;3
34240;PMS7003;20503;50.200;19.508;2023-08-24T02:46:28;6;5;3
34240;PMS7003;20503;50.200;19.508;2023-08-24T02:51:36;5;5;4
34240;PMS7003;20503;50.200;19.508;2023-08-24T02:56:44;4;3;3
34240;PMS7003;20503;50.200;19.508;2023-08-24T03:01:52;4;4;3
34240;PMS7003;20503;50.200;19.508;2023-08-24T03:07:00;4;4;4
34240;PMS7003;20503;50.200;19.508;2023-08-24T03:12:08;4;4;3
34240;PMS7003;20503;50.200;19.508;2023-08-24T03:17:16;5;5;4
34240;PMS7003;20503;50.200;19.508;2023-08-24T03:22:24;5;4;3
34240;PMS7003;20503;50.200;19.508;2023-08-24T03:27:32;5;4;4
34240;PMS7003;20503;50.200;19.508;2023-08-24T03:32:40;5;4;3
34240;PMS7003;20503;50.200;19.508;2023-08-24T03:37:48;5;4;4
34240;PMS7003;20503;50.200;19.508;2023-08-24T03:42:56;5;4;3
34240;PMS7003;20503;50.200;19.508;2023-08-24T03:48:04;4;4;3
34240;PMS7003;20503;50.200;19.508;2023-08-24T03:53:12;3;3;3
34240;PMS7003;20503;50.200;19.508;2023-08-24T03:58:20;5;5;3
34240;PMS7003;20503;50.200;19.508;2023-08-24T04:03:28;4;4;3
34240;PMS7003;20503;50.200;19.508;2023-08-24T04:08:36;3;3;3
34240;PMS7003;20503;50.200;19.508;2023-08-24T04:13:46;5;4;3
34240;PMS7003;20503;50.200;19.508;2023-08-24T04:18:53;6;5;4
34240;PMS7003;20503;50.200;19.508;2023-08-24T04:24:00;6;5;5
34240;PMS7003;20503;50.200;19.508;2023-08-24T04:29:08;4;4;3
34240;PMS7003;20503;50.200;19.508;2023-08-24T04:34:17;6;4;4
34240;PMS7003;20503;50.200;19.508;2023-08-24T04:39:25;5;5;3
34240;PMS7003;20503;50.200;19.508;2023-08-24T04:44:33;4;4;4
34240;PMS7003;20503;50.200;19.508;2023-08-24T04:49:40;5;5;4
34240;PMS7003;20503;50.200;19.508;2023-08-24T04:54:49;8;8;7
34240;PMS7003;20503;50.200;19.508;2023-08-24T04:59:56;10;6;4
34240;PMS7003;20503;50.200;19.508;2023-08-24T05:05:06;4;4;4
34240;PMS7003;20503;50.200;19.508;2023-08-24T05:10:13;5;5;4
34240;PMS7003;20503;50.200;19.508;2023-08-24T05:15:22;6;6;5
34240;PMS7003;20503;50.200;19.508;2023-08-24T05:20:30;6;6;6
34240;PMS7003;20503;50.200;19.508;2023-08-24T05:25:39;6;6;5
34240;PMS7003;20503;50.200;19.508;2023-08-24T05:30:47;15;15;11
34240;PMS7003;20503;50.200;19.508;2023-08-24T05:35:56;21;20;15
34240;PMS7003;20503;50.200;19.508;2023-08-24T05:41:04;26;22;16
34240;PMS7003;20503;50.200;19.508;2023-08-24T05:46:12;21;18;15
34240;PMS7003;20503;50.200;19.508;2023-08-24T05:51:20;18;15;12
34240;PMS7003;20503;50.200;19.508;2023-08-24T05:56:29;21;17;12
34240;PMS7003;20503;50.200;19.508;2023-08-24T06:01:38;14;14;11
34240;PMS7003;20503;50.200;19.508;2023-08-24T06:06:45;13;13;11
34240;PMS7003;20503;50.200;19.508;2023-08-24T06:11:54;13;13;11
34240;PMS7003;20503;50.200;19.508;2023-08-24T06:17:01;19;15;12
34240;PMS7003;20503;50.200;19.508;2023-08-24T06:22:10;16;11;10
34240;PMS7003;20503;50.200;19.508;2023-08-24T06:27:18;17;14;11
34240;PMS7003;20503;50.200;19.508;2023-08-24T06:32:27;13;13;10
34240;PMS7003;20503;50.200;19.508;2023-08-24T06:37:36;17;15;12
34240;PMS7003;20503;50.200;19.508;2023-08-24T06:42:44;20;17;12
34240;PMS7003;20503;50.200;19.508;2023-08-24T06:47:52;22;18;14
34240;PMS7003;20503;50.200;19.508;2023-08-24T06:53:01;20;19;15
34240;PMS7003;20503;50.200;19.508;2023-08-24T06:58:09;18;16;12
34240;PMS7003;20503;50.200;19.508;2023-08-24T07:03:18;17;17;12
34240;PMS7003;20503;50.200;19.508;2023-08-24T07:08:26;16;16;13
34240;PMS7003;20503;50.200;19.508;2023-08-24T07:13:35;18;13;11
34240;PMS7003;20503;50.200;19.508;2023-08-24T07:18:43;16;12;9
34240;PMS7003;20503;50.200;19.508;2023-08-24T07:23:51;14;13;10
34240;PMS7003;20503;50.200;19.508;2023-08-24T07:28:59;16;13;9
34240;PMS7003;20503;50.200;19.508;2023-08-24T07:34:08;13;13;11
34240;PMS7003;20503;50.200;19.508;2023-08-24T07:39:16;11;11;9
34240;PMS7003;20503;50.200;19.508;2023-08-24T07:44:24;12;10;8
34240;PMS7003;20503;50.200;19.508;2023-08-24T07:49:33;12;12;10
34240;PMS7003;20503;50.200;19.508;2023-08-24T07:54:41;10;10;8
34240;PMS7003;20503;50.200;19.508;2023-08-24T07:59:50;10;10;8
34240;PMS7003;20503;50.200;19.508;2023-08-24T08:04:58;13;10;8
34240;PMS7003;20503;50.200;19.508;2023-08-24T08:15:26;10;7;6
34240;PMS7003;20503;50.200;19.508;2023-08-24T08:25:45;7;7;6
34240;PMS7003;20503;50.200;19.508;2023-08-24T08:30:47;9;7;5
34240;PMS7003;20503;50.200;19.508;2023-08-24T08:35:49;5;5;5
34240;PMS7003;20503;50.200;19.508;2023-08-24T08:41:03;4;4;4
34240;PMS7003;20503;50.200;19.508;2023-08-24T08:46:05;7;5;4
34240;PMS7003;20503;50.200;19.508;2023-08-24T08:51:14;5;5;4
34240;PMS7003;20503;50.200;19.508;2023-08-24T08:56:22;5;3;3
34240;PMS7003;20503;50.200;19.508;2023-08-24T09:01:31;4;4;3
34240;PMS7003;20503;50.200;19.508;2023-08-24T09:06:39;3;3;3
34240;PMS7003;20503;50.200;19.508;2023-08-24T09:11:48;2;2;2
34240;PMS7003;20503;50.200;19.508;2023-08-24T09:16:56;4;3;3
34240;PMS7003;20503;50.200;19.508;2023-08-24T09:22:04;3;3;3
34240;PMS7003;20503;50.200;19.508;2023-08-24T09:27:16;4;3;2
34240;PMS7003;20503;50.200;19.508;2023-08-24T09:32:22;4;4;4
34240;PMS7003;20503;50.200;19.508;2023-08-24T09:42:39;4;4;3
34240;PMS7003;20503;50.200;19.508;2023-08-24T09:47:50;4;3;3
34240;PMS7003;20503;50.200;19.508;2023-08-24T09:52:56;3;3;3
34240;PMS7003;20503;50.200;19.508;2023-08-24T09:58:04;5;5;4
34240;PMS7003;20503;50.200;19.508;2023-08-24T10:03:15;5;4;4
34240;PMS7003;20503;50.200;19.508;2023-08-24T10:08:26;4;4;4
34240;PMS7003;20503;50.200;19.508;2023-08-24T10:18:40;5;5;4
34240;PMS7003;20503;50.200;19.508;2023-08-24T10:23:47;4;4;4
34240;PMS7003;20503;50.200;19.508;2023-08-24T10:28:56;4;4;3
34240;PMS7003;20503;50.200;19.508;2023-08-24T10:34:05;5;5;4
34240;PMS7003;20503;50.200;19.508;2023-08-24T10:39:15;6;5;5
34240;PMS7003;20503;50.200;19.508;2023-08-24T10:49:31;6;6;5
34240;PMS7003;20503;50.200;19.508;2023-08-24T10:54:42;6;6;4
34240;PMS7003;20503;50.200;19.508;2023-08-24T11:15:11;7;5;5
34240;PMS7003;20503;50.200;19.508;2023-08-24T11:20:21;10;6;5
34240;PMS7003;20503;50.200;19.508;2023-08-24T11:25:27;7;7;5
34240;PMS7003;20503;50.200;19.508;2023-08-24T11:30:35;7;5;3
34240;PMS7003;20503;50.200;19.508;2023-08-24T11:35:44;7;7;7
34240;PMS7003;20503;50.200;19.508;2023-08-24T11:40:51;7;6;5
34240;PMS7003;20503;50.200;19.508;2023-08-24T11:45:59;8;6;5
34240;PMS7003;20503;50.200;19.508;2023-08-24T11:51:10;8;6;5
34240;PMS7003;20503;50.200;19.508;2023-08-24T11:56:15;5;5;5
34240;PMS7003;20503;50.200;19.508;2023-08-24T12:01:23;7;6;5
34240;PMS7003;20503;50.200;19.508;2023-08-24T12:06:31;6;6;5
34240;PMS7003;20503;50.200;19.508;2023-08-24T12:12:38;0;0;0
34240;PMS7003;20503;50.200;19.508;2023-08-24T12:17:42;8;5;5
34240;PMS7003;20503;50.200;19.508;2023-08-24T12:22:44;6;6;4
34240;PMS7003;20503;50.200;19.508;2023-08-24T12:27:52;7;7;6
34240;PMS7003;20503;50.200;19.508;2023-08-24T12:32:55;6;6;5
34240;PMS7003;20503;50.200;19.508;2023-08-24T12:37:56;6;6;5
34240;PMS7003;20503;50.200;19.508;2023-08-24T12:42:56;8;6;6
34240;PMS7003;20503;50.200;19.508;2023-08-24T12:47:57;7;7;6
34240;PMS7003;20503;50.200;19.508;2023-08-24T12:52:58;7;6;4
34240;PMS7003;20503;50.200;19.508;2023-08-24T12:58:00;7;7;4
34240;PMS7003;20503;50.200;19.508;2023-08-24T13:03:01;7;6;4
34240;PMS7003;20503;50.200;19.508;2023-08-24T13:08:03;9;6;5
34240;PMS7003;20503;50.200;19.508;2023-08-24T13:13:06;8;8;6
34240;PMS7003;20503;50.200;19.508;2023-08-24T13:18:07;8;6;5
34240;PMS7003;20503;50.200;19.508;2023-08-24T13:23:08;11;6;5
34240;PMS7003;20503;50.200;19.508;2023-08-24T13:28:09;6;6;5
34240;PMS7003;20503;50.200;19.508;2023-08-24T13:33:10;6;6;5
34240;PMS7003;20503;50.200;19.508;2023-08-24T13:38:12;7;6;6
34240;PMS7003;20503;50.200;19.508;2023-08-24T13:43:13;7;6;5
34240;PMS7003;20503;50.200;19.508;2023-08-24T13:48:14;8;6;5
34240;PMS7003;20503;50.200;19.508;2023-08-24T13:53:14;7;6;5
34240;PMS7003;20503;50.200;19.508;2023-08-24T13:58:15;8;8;7
34240;PMS7003;20503;50.200;19.508;2023-08-24T14:03:16;12;8;7
34240;PMS7003;20503;50.200;19.508;2023-08-24T14:08:17;7;7;7
34240;PMS7003;20503;50.200;19.508;2023-08-24T14:13:18;9;7;6
34240;PMS7003;20503;50.200;19.508;2023-08-24T14:18:19;9;8;7
34240;PMS7003;20503;50.200;19.508;2023-08-24T14:23:19;7;6;5
34240;PMS7003;20503;50.200;19.508;2023-08-24T14:28:21;7;7;5
34240;PMS7003;20503;50.200;19.508;2023-08-24T14:33:23;7;6;6
34240;PMS7003;20503;50.200;19.508;2023-08-24T14:38:24;8;6;5
34240;PMS7003;20503;50.200;19.508;2023-08-24T14:43:24;7;6;5
34240;PMS7003;20503;50.200;19.508;2023-08-24T14:48:25;10;7;6
34240;PMS7003;20503;50.200;19.508;2023-08-24T14:53:26;10;9;7
34240;PMS7003;20503;50.200;19.508;2023-08-24T14:58:27;8;6;6
34240;PMS7003;20503;50.200;19.508;2023-08-24T15:03:28;8;6;6
34240;PMS7003;20503;50.200;19.508;2023-08-24T15:08:30;6;6;6
34240;PMS7003;20503;50.200;19.508;2023-08-24T15:13:31;5;5;5
34240;PMS7003;20503;50.200;19.508;2023-08-24T15:18:32;11;9;7
34240;PMS7003;20503;50.200;19.508;2023-08-24T15:23:32;7;7;6
34240;PMS7003;20503;50.200;19.508;2023-08-24T15:28:36;8;7;5
34240;PMS7003;20503;50.200;19.508;2023-08-24T15:33:38;9;9;7
34240;PMS7003;20503;50.200;19.508;2023-08-24T15:38:39;11;8;6
34240;PMS7003;20503;50.200;19.508;2023-08-24T15:43:39;8;6;5
34240;PMS7003;20503;50.200;19.508;2023-08-24T15:48:40;6;6;6
34240;PMS7003;20503;50.200;19.508;2023-08-24T15:53:41;8;7;6
34240;PMS7003;20503;50.200;19.508;2023-08-24T15:58:44;9;5;5
34240;PMS7003;20503;50.200;19.508;2023-08-24T16:03:52;7;6;5
34240;PMS7003;20503;50.200;19.508;2023-08-24T16:09:01;10;9;8
34240;PMS7003;20503;50.200;19.508;2023-08-24T16:14:09;7;7;6
34240;PMS7003;20503;50.200;19.508;2023-08-24T16:19:17;9;7;6
34240;PMS7003;20503;50.200;19.508;2023-08-24T16:24:25;6;5;5
34240;PMS7003;20503;50.200;19.508;2023-08-24T16:29:33;8;8;7
34240;PMS7003;20503;50.200;19.508;2023-08-24T16:34:41;9;7;6
34240;PMS7003;20503;50.200;19.508;2023-08-24T16:39:49;10;7;6
34240;PMS7003;20503;50.200;19.508;2023-08-24T16:44:58;10;8;7
34240;PMS7003;20503;50.200;19.508;2023-08-24T16:50:07;24;21;15
34240;PMS7003;20503;50.200;19.508;2023-08-24T16:55:15;25;24;19
34240;PMS7003;20503;50.200;19.508;2023-08-24T17:00:23;20;16;13
34240;PMS7003;20503;50.200;19.508;2023-08-24T17:05:31;15;11;10
34240;PMS7003;20503;50.200;19.508;2023-08-24T17:10:40;8;8;7
34240;PMS7003;20503;50.200;19.508;2023-08-24T17:15:51;10;10;8
34240;PMS7003;20503;50.200;19.508;2023-08-24T17:20:56;8;8;6
34240;PMS7003;20503;50.200;19.508;2023-08-24T17:26:05;10;10;7
34240;PMS7003;20503;50.200;19.508;2023-08-24T17:31:13;13;11;9
34240;PMS7003;20503;50.200;19.508;2023-08-24T17:36:22;10;10;9
34240;PMS7003;20503;50.200;19.508;2023-08-24T17:41:30;11;11;9
34240;PMS7003;20503;50.200;19.508;2023-08-24T17:46:38;10;10;8
34240;PMS7003;20503;50.200;19.508;2023-08-24T17:51:47;9;9;7
34240;PMS7003;20503;50.200;19.508;2023-08-24T17:56:55;23;22;15
34240;PMS7003;20503;50.200;19.508;2023-08-24T18:02:03;12;12;10
34240;PMS7003;20503;50.200;19.508;2023-08-24T18:07:11;12;12;10
34240;PMS7003;20503;50.200;19.508;2023-08-24T18:12:20;15;14;10
34240;PMS7003;20503;50.200;19.508;2023-08-24T18:17:27;22;18;14
34240;PMS7003;20503;50.200;19.508;2023-08-24T18:22:36;36;30;20
34240;PMS7003;20503;50.200;19.508;2023-08-24T18:27:44;32;29;18
34240;PMS7003;20503;50.200;19.508;2023-08-24T18:32:52;22;22;15
34240;PMS7003;20503;50.200;19.508;2023-08-24T18:38:00;19;19;13
34240;PMS7003;20503;50.200;19.508;2023-08-24T18:43:08;20;20;15
34240;PMS7003;20503;50.200;19.508;2023-08-24T18:48:17;26;20;14
34240;PMS7003;20503;50.200;19.508;2023-08-24T18:53:26;19;16;12
34240;PMS7003;20503;50.200;19.508;2023-08-24T18:58:34;15;14;11
34240;PMS7003;20503;50.200;19.508;2023-08-24T19:03:42;17;14;11
34240;PMS7003;20503;50.200;19.508;2023-08-24T19:08:51;22;20;13
34240;PMS7003;20503;50.200;19.508;2023-08-24T19:14:00;19;14;11
34240;PMS7003;20503;50.200;19.508;2023-08-24T19:19:11;17;16;12
34240;PMS7003;20503;50.200;19.508;2023-08-24T19:24:17;18;16;13
34240;PMS7003;20503;50.200;19.508;2023-08-24T19:29:25;18;15;12
34240;PMS7003;20503;50.200;19.508;2023-08-24T19:34:34;17;17;14
34240;PMS7003;20503;50.200;19.508;2023-08-24T19:39:42;16;13;10
34240;PMS7003;20503;50.200;19.508;2023-08-24T19:44:51;16;13;9
34240;PMS7003;20503;50.200;19.508;2023-08-24T19:50:00;20;18;12
34240;PMS7003;20503;50.200;19.508;2023-08-24T19:55:08;24;20;15
34240;PMS7003;20503;50.200;19.508;2023-08-24T20:00:18;19;14;10
34240;PMS7003;20503;50.200;19.508;2023-08-24T20:05:25;11;11;9
34240;PMS7003;20503;50.200;19.508;2023-08-24T20:10:34;13;13;11
34240;PMS7003;20503;50.200;19.508;2023-08-24T20:15:42;12;11;9
34240;PMS7003;20503;50.200;19.508;2023-08-24T20:20:52;12;12;10
34240;PMS7003;20503;50.200;19.508;2023-08-24T20:26:00;17;16;13
34240;PMS7003;20503;50.200;19.508;2023-08-24T20:31:09;43;35;25
34240;PMS7003;20503;50.200;19.508;2023-08-24T20:36:17;48;38;27
34240;PMS7003;20503;50.200;19.508;2023-08-24T20:41:26;39;33;24
34240;PMS7003;20503;50.200;19.508;2023-08-24T20:46:35;32;29;21
34240;PMS7003;20503;50.200;19.508;2023-08-24T20:51:44;44;34;24
34240;PMS7003;20503;50.200;19.508;2023-08-24T20:56:53;28;24;14
34240;PMS7003;20503;50.200;19.508;2023-08-24T21:02:00;17;16;13
34240;PMS7003;20503;50.200;19.508;2023-08-24T21:07:08;20;18;14
34240;PMS7003;20503;50.200;19.508;2023-08-24T21:12:17;27;21;15
34240;PMS7003;20503;50.200;19.508;2023-08-24T21:17:26;23;19;14
34240;PMS7003;20503;50.200;19.508;2023-08-24T21:22:34;33;27;21
34240;PMS7003;20503;50.200;19.508;2023-08-24T21:27:43;31;29;17
34240;PMS7003;20503;50.200;19.508;2023-08-24T21:32:52;25;20;14
34240;PMS7003;20503;50.200;19.508;2023-08-24T21:38:02;15;13;9
34240;PMS7003;20503;50.200;19.508;2023-08-24T21:43:09;14;13;10
34240;PMS7003;20503;50.200;19.508;2023-08-24T21:48:18;14;12;10
34240;PMS7003;20503;50.200;19.508;2023-08-24T21:53:27;12;11;8
34240;PMS7003;20503;50.200;19.508;2023-08-24T21:58:35;18;13;10
34240;PMS7003;20503;50.200;19.508;2023-08-24T22:03:44;19;16;11
34240;PMS7003;20503;50.200;19.508;2023-08-24T22:08:52;19;15;12
34240;PMS7003;20503;50.200;19.508;2023-08-24T22:14:01;18;15;13
34240;PMS7003;20503;50.200;19.508;2023-08-24T22:19:09;11;11;9
34240;PMS7003;20503;50.200;19.508;2023-08-24T22:24:18;25;18;11
34240;PMS7003;20503;50.200;19.508;2023-08-24T22:29:26;22;20;13
34240;PMS7003;20503;50.200;19.508;2023-08-24T22:34:35;10;9;8
34240;PMS7003;20503;50.200;19.508;2023-08-24T22:39:43;13;13;10
34240;PMS7003;20503;50.200;19.508;2023-08-24T22:44:53;12;10;9
34240;PMS7003;20503;50.200;19.508;2023-08-24T22:50:01;9;9;7
34240;PMS7003;20503;50.200;19.508;2023-08-24T22:55:09;10;10;7
34240;PMS7003;20503;50.200;19.508;2023-08-24T23:00:18;13;10;8
34240;PMS7003;20503;50.200;19.508;2023-08-24T23:05:26;15;11;9
34240;PMS7003;20503;50.200;19.508;2023-08-24T23:10:34;11;10;7
34240;PMS7003;20503;50.200;19.508;2023-08-24T23:15:46;12;11;9
34240;PMS7003;20503;50.200;19.508;2023-08-24T23:20:52;11;9;7
34240;PMS7003;20503;50.200;19.508;2023-08-24T23:26:00;11;11;9
34240;PMS7003;20503;50.200;19.508;2023-08-24T23:31:08;11;10;8
34240;PMS7003;20503;50.200;19.508;2023-08-24T23:36:16;11;9;8
34240;PMS7003;20503;50.200;19.508;2023-08-24T23:41:25;9;8;6
34240;PMS7003;20503;50.200;19.508;2023-08-24T23:46:33;9;8;6
34240;PMS7003;20503;50.200;19.508;2023-08-24T23:51:41;9;9;7
34240;PMS7003;20503;50.200;19.508;2023-08-24T23:56:50;9;9;6
